Maple Falls, Washington
Current Conditions -  °F | °C
As of 8:14 AM on Tuesday 21 Oct 2014 (Local Time) from CYXX Reporting Station
Broken Clouds Broken Clouds  
Wind Chill: 54°   Ceiling: 4000
Heat Index: 54°   Visibility: 15mi
Dew Point: 52°   Wind: 6mph
Humidity: 94%   Direction: 190°S
Pressure: 29.83"   Gusts: NA
Location:  48.92°N, 122.08°W
Report Text: CYXX 211514Z 19005KT 15SM FEW020 BKN040 BKN060 12/11 A2983 RMK SC2SC3SC2 SLP100
Loading
Personal Weather Stations






























Interactive Weather Map
Tropical Storm Tracking
New forecast layout! Learn more

10-Day Weather Forecast

Advertisements
Track Severe Weather on mobile